Latest Weather Observations for Bendigo

IDV60801

Issued at 1:32 pm EST Sunday 25 September 2016 (issued every 30 minutes, with the page automatically refreshed every 10 minutes)

About weather observations | Map of weather stations | Latest weather observations for VIC | Other Formats
Station Details ID: 081123 Name: BENDIGO AIRPORT Lat: -36.74 Lon: 144.33 Height: 208.0 m
Data from the previous 72 hours. | See also: Recent months at Bendigo
Date/Time
EST
Temp
°C
App
Temp
°C
Dew
Point
°C
Rel
Hum
%
Delta-T
°C
Wind Press
QNH
hPa
Press
MSL
hPa
Rain since
9am
mm
Dir  Spd
km/h
Gust
km/h
Spd
kts
Gust
kts
25/01:30pm 13.5 7.8 3.0 49 4.7 SSW 22 35 12 19 1011.7 1011.9 0.0
25/01:00pm 12.8 7.4 2.4 49 4.6 SW 20 37 11 20 1012.0 1012.1 0.0
25/12:30pm 13.2 7.2 3.3 51 4.5 WSW 24 32 13 17 1012.0 1012.1 0.0
25/12:00pm 13.0 7.2 4.2 55 4.0 SW 24 37 13 20 1012.1 1012.2 0.0
25/11:30am 13.6 8.1 4.2 53 4.3 SW 22 33 12 18 1012.1 1012.2 0.0
25/11:00am 11.2 6.1 4.0 61 3.2 SW 20 32 11 17 1012.0 1012.1 0.0
25/10:30am 11.9 6.4 4.2 59 3.5 WSW 22 35 12 19 1012.1 1012.2 0.0
25/10:00am 11.5 6.3 5.4 66 2.8 WSW 22 32 12 17 1012.2 1012.3 0.0
25/09:30am 10.8 4.7 4.7 66 2.8 SW 26 37 14 20 1012.0 1012.1 0.0
25/09:00am 10.3 4.6 4.7 68 2.5 SW 24 39 13 21 1011.6 1011.8 7.0
25/08:30am 9.7 3.9 4.3 69 2.4 SW 24 35 13 19 1011.1 1011.3 7.0
25/08:00am 9.3 4.8 4.3 71 2.2 SW 17 26 9 14 1010.6 1010.8 7.0
25/07:30am 8.5 3.6 4.1 74 1.9 SW 19 28 10 15 1010.3 1010.5 7.0
25/07:00am 7.9 4.2 4.7 80 1.4 SSW 13 22 7 12 1010.2 1010.4 7.0
25/06:30am 7.4 3.7 4.7 83 1.2 SSW 13 20 7 11 1009.8 1009.9 7.0
25/06:00am 7.7 3.9 5.7 87 0.9 SW 15 24 8 13 1009.5 1009.6 7.0
25/05:30am 7.9 5.3 6.0 88 0.9 SSW 9 17 5 9 1008.9 1009.0 7.0
25/05:00am 8.1 5.1 6.2 88 0.9 SSW 11 20 6 11 1008.4 1008.5 7.0
25/04:30am 8.4 4.7 6.4 87 0.9 SW 15 26 8 14 1008.2 1008.3 7.0
25/04:00am 8.7 4.7 6.7 87 0.9 SW 17 24 9 13 1007.7 1007.8 7.0
25/03:30am 9.0 5.1 7.1 88 0.9 SW 17 24 9 13 1007.5 1007.6 7.0
25/03:00am 9.4 6.7 7.3 87 1.0 SW 11 17 6 9 1007.3 1007.4 7.0
25/02:30am 9.8 6.8 7.9 88 0.9 WSW 13 19 7 10 1007.2 1007.3 7.0
25/02:00am 10.4 7.6 8.5 88 0.9 WSW 13 20 7 11 1007.2 1007.3 7.0
25/01:55am 10.5 7.7 8.4 87 1.0 WSW 13 20 7 11 1007.2 1007.3 7.0
25/01:48am 10.6 7.5 8.9 89 0.8 WSW 15 20 8 11 1007.2 1007.3 7.0
25/01:33am 11.0 8.3 10.4 96 0.3 W 15 24 8 13 1007.3 1007.4 7.0
25/01:30am 11.0 9.0 10.2 95 0.4 WNW 11 20 6 11 1007.2 1007.3 6.8
25/01:17am 10.9 8.9 10.1 95 0.4 NW 11 13 6 7 1007.0 1007.1 6.6
25/01:00am 10.7 9.0 9.9 95 0.4 NW 9 11 5 6 1007.0 1007.1 6.4
25/12:35am 10.8 8.8 10.2 96 0.3 N 11 17 6 9 1006.9 1007.0 6.2
25/12:30am 10.8 8.4 10.2 96 0.3 N 13 20 7 11 1006.8 1006.9 6.2
25/12:00am 10.9 7.4 10.1 95 0.4 NNW 19 30 10 16 1007.2 1007.3 5.8
 
Date/Time
EST
Temp
°C
App
Temp
°C
Dew
Point
°C
Rel
Hum
%
Delta-T
°C
Wind Press
QNH
hPa
Press
MSL
hPa
Rain since
9am
mm
Dir  Spd
km/h
Gust
km/h
Spd
kts
Gust
kts
24/11:51pm 10.9 8.1 10.1 95 0.4 NW 15 20 8 11 1007.4 1007.5 5.2
24/11:30pm 11.1 8.4 10.3 95 0.4 NW 15 20 8 11 1007.4 1007.5 4.6
24/11:00pm 11.1 10.8 10.2 94 0.5 NW 2 7 1 4 1007.4 1007.5 3.6
24/10:30pm 11.3 9.6 10.0 92 0.7 WNW 9 13 5 7 1007.3 1007.4 3.4
24/10:00pm 11.5 9.8 9.9 90 0.8 NW 9 13 5 7 1007.5 1007.6 2.6
24/09:30pm 11.7 10.5 10.4 92 0.7 NW 7 9 4 5 1007.5 1007.6 2.0
24/09:00pm 11.6 11.8 10.5 93 0.6 CALM 0 0 0 0 1007.2 1007.3 1.8
24/08:30pm 11.7 11.9 10.6 93 0.6 CALM 0 0 0 0 1007.2 1007.3 1.8
24/08:00pm 11.9 12.1 10.6 92 0.7 CALM 0 0 0 0 1007.2 1007.3 1.8
24/07:30pm 12.0 10.5 10.7 92 0.7 NE 9 11 5 6 1007.1 1007.2 1.6
24/07:00pm 11.9 12.1 10.6 92 0.7 CALM 0 0 0 0 1007.3 1007.4 1.6
24/06:30pm 12.1 11.2 10.5 90 0.8 NE 6 7 3 4 1007.3 1007.4 1.4
24/06:00pm 12.5 11.4 10.6 88 1.0 N 7 11 4 6 1007.4 1007.5 1.2
24/05:30pm 12.9 11.7 10.4 85 1.3 N 7 11 4 6 1007.4 1007.5 1.0
24/05:00pm 13.3 11.7 10.3 82 1.6 N 9 11 5 6 1007.2 1007.3 0.8
24/04:30pm 13.8 11.8 10.0 78 2.0 N 11 19 6 10 1007.1 1007.2 0.6
24/04:00pm 15.3 12.1 8.3 63 3.6 N 15 22 8 12 1006.8 1006.9 0.0
24/03:30pm 15.8 11.4 7.6 58 4.1 N 20 28 11 15 1006.5 1006.7 0.0
24/03:00pm 16.1 11.7 7.3 56 4.4 N 20 28 11 15 1006.9 1007.0 0.0
24/02:30pm 16.3 11.4 7.0 54 4.6 N 22 35 12 19 1007.3 1007.4 0.0
24/02:00pm 16.5 11.2 6.6 52 4.9 N 24 33 13 18 1007.7 1007.8 0.0
24/01:30pm 16.6 11.6 6.4 51 5.0 N 22 32 12 17 1007.9 1008.0 0.0
24/01:00pm 16.9 12.0 6.7 51 5.1 N 22 28 12 15 1007.8 1007.9 0.0
24/12:30pm 16.8 12.2 6.3 50 5.2 N 20 33 11 18 1007.9 1008.0 0.0
24/12:00pm 17.2 11.9 6.7 50 5.3 N 24 35 13 19 1008.3 1008.4 0.0
24/11:30am 15.8 10.9 6.8 55 4.5 NNW 22 32 12 17 1008.7 1008.8 0.0
24/11:00am 15.9 10.4 6.1 52 4.8 N 24 30 13 16 1008.9 1009.0 0.0
24/10:30am 15.9 11.5 7.4 57 4.3 NNE 20 32 11 17 1009.1 1009.2 0.0
24/10:00am 14.8 12.5 9.0 68 3.0 NNE 11 17 6 9 1009.6 1009.7 0.0
24/09:30am 13.5 10.3 8.6 72 2.5 NNE 15 20 8 11 1010.0 1010.1 0.0
24/09:00am 12.7 10.2 8.2 74 2.3 NNE 11 17 6 9 1009.9 1010.0 0.2
24/08:30am 11.0 9.1 7.7 80 1.6 NNE 7 13 4 7 1010.5 1010.7 0.2
24/08:00am 9.9 9.6 8.7 92 0.6 CALM 0 6 0 3 1010.5 1010.7 0.2
24/07:30am 6.7 5.5 6.4 98 0.1 SE 2 6 1 3 1010.6 1010.8 0.2
24/07:00am 5.0 2.7 4.7 98 0.1 SE 6 6 3 3 1010.9 1011.1 0.2
24/06:30am 4.2 2.8 3.8 97 0.2 CALM 0 0 0 0 1010.7 1010.9 0.2
24/06:00am 4.0 2.6 3.6 97 0.2 CALM 0 0 0 0 1010.1 1010.2 0.2
24/05:30am 3.9 1.4 3.5 97 0.2 SSE 6 9 3 5 1010.1 1010.2 0.2
24/05:22am 3.9 2.1 3.5 97 0.2 SSE 2 7 1 4 1010.0 1010.1 0.2
24/05:00am 4.4 3.1 4.0 97 0.2 CALM 0 0 0 0 1010.0 1010.1 0.2
24/04:46am 4.3 3.0 3.9 97 0.2 CALM 0 0 0 0 1010.0 1010.1 0.2
24/04:30am 4.9 3.7 4.5 97 0.2 CALM 0 0 0 0 1010.0 1010.1 0.2
24/04:26am 4.8 3.6 4.4 97 0.2 CALM 0 0 0 0 1010.0 1010.1 0.2
24/04:05am 4.8 3.6 4.4 97 0.2 CALM 0 0 0 0 1010.1 1010.2 0.2
24/04:00am 4.7 3.4 4.3 97 0.2 CALM 0 0 0 0 1010.2 1010.4 0.2
24/03:30am 4.7 3.4 4.3 97 0.2 CALM 0 0 0 0 1010.2 1010.4 0.2
24/03:00am 4.8 3.5 4.2 96 0.3 CALM 0 0 0 0 1010.3 1010.5 0.2
24/02:49am 5.3 4.2 4.9 97 0.2 CALM 0 0 0 0 1010.4 1010.6 0.2
24/02:30am 5.2 4.0 4.6 96 0.3 CALM 0 0 0 0 1010.6 1010.8 0.2
24/02:27am 5.1 3.5 4.5 96 0.3 SSE 2 6 1 3 1010.7 1010.9 0.2
24/02:00am 5.7 3.8 5.1 96 0.3 SSE 4 7 2 4 1010.8 1011.0 0.2
24/01:30am 6.1 5.1 5.5 96 0.3 CALM 0 0 0 0 1011.1 1011.3 0.2
24/01:00am 6.7 5.8 6.1 96 0.3 CALM 0 0 0 0 1011.2 1011.4 0.2
24/12:30am 7.5 6.8 6.8 95 0.3 CALM 0 0 0 0 1011.4 1011.6 0.2
24/12:28am 7.6 6.9 6.9 95 0.3 CALM 0 0 0 0 1011.4 1011.6 0.2
24/12:09am 7.8 7.1 6.9 94 0.4 CALM 0 0 0 0 1011.5 1011.7 0.2
24/12:00am 8.5 7.9 7.6 94 0.4 CALM 0 0 0 0 1011.6 1011.8 0.2
 
Date/Time
EST
Temp
°C
App
Temp
°C
Dew
Point
°C
Rel
Hum
%
Delta-T
°C
Wind Press
QNH
hPa
Press
MSL
hPa
Rain since
9am
mm
Dir  Spd
km/h
Gust
km/h
Spd
kts
Gust
kts
23/11:30pm 9.2 8.8 8.1 93 0.5 CALM 0 0 0 0 1011.6 1011.8 0.2
23/11:00pm 8.9 8.5 8.1 95 0.4 CALM 0 0 0 0 1011.7 1011.9 0.2
23/10:30pm 8.2 7.6 7.4 95 0.4 CALM 0 0 0 0 1011.7 1011.9 0.2
23/10:00pm 7.8 7.1 6.9 94 0.4 CALM 0 0 0 0 1011.6 1011.8 0.2
23/09:30pm 8.1 7.3 6.7 91 0.7 CALM 0 0 0 0 1011.6 1011.8 0.2
23/09:00pm 8.8 8.2 7.6 92 0.6 CALM 0 0 0 0 1011.7 1011.9 0.2
23/08:38pm 9.6 9.2 8.2 91 0.7 CALM 0 0 0 0 1011.7 1011.9 0.2
23/08:30pm 9.2 8.7 7.8 91 0.7 CALM 0 0 0 0 1011.7 1011.9 0.2
23/08:27pm 9.1 8.5 7.5 90 0.8 CALM 0 0 0 0 1011.6 1011.8 0.2
23/08:00pm 10.0 9.6 8.1 88 0.9 CALM 0 0 0 0 1012.1 1012.2 0.2
23/07:30pm 11.3 10.9 8.3 82 1.5 CALM 0 0 0 0 1012.0 1012.1 0.2
23/07:00pm 12.3 11.9 8.4 77 2.0 CALM 0 0 0 0 1011.7 1011.9 0.2
23/06:30pm 13.5 11.8 8.4 71 2.6 NE 7 9 4 5 1011.3 1011.5 0.2
23/06:00pm 14.6 12.2 8.8 68 3.0 NE 11 15 6 8 1011.5 1011.7 0.2
23/05:30pm 15.3 12.1 8.5 64 3.5 NNE 15 20 8 11 1011.4 1011.6 0.2
23/05:00pm 16.2 12.5 7.9 58 4.2 N 17 28 9 15 1011.3 1011.5 0.2
23/04:30pm 16.2 13.0 8.4 60 4.0 NNE 15 22 8 12 1011.3 1011.5 0.2
23/04:00pm 16.8 13.6 8.5 58 4.3 NE 15 24 8 13 1011.3 1011.5 0.2
23/03:30pm 16.9 14.9 8.6 58 4.3 NNE 9 17 5 9 1011.4 1011.6 0.2
23/03:00pm 16.5 13.6 8.0 57 4.3 N 13 20 7 11 1011.7 1011.9 0.2
23/02:30pm 17.0 13.4 8.2 56 4.5 N 17 24 9 13 1012.0 1012.1 0.2
23/02:00pm 16.4 13.3 7.1 54 4.7 N 13 19 7 10 1012.3 1012.4 0.2
23/01:30pm 16.1 12.5 6.8 54 4.6 N 15 22 8 12 1012.9 1013.0 0.2
23/01:00pm 16.6 13.7 8.3 58 4.3 N 13 20 7 11 1013.2 1013.3 0.2
23/12:30pm 15.6 12.2 7.6 59 4.0 N 15 24 8 13 1013.7 1013.8 0.2
23/12:00pm 15.5 13.5 8.5 63 3.6 NW 9 17 5 9 1014.2 1014.3 0.2
23/11:30am 15.1 13.7 7.4 60 3.8 NE 4 13 2 7 1014.7 1014.9 0.2
23/11:00am 14.6 12.7 7.4 62 3.6 NE 7 15 4 8 1015.0 1015.2 0.0
23/10:30am 14.2 12.2 6.3 59 3.8 ENE 6 15 3 8 1015.6 1015.8 0.0
23/10:00am 13.7 11.4 7.5 66 3.1 E 9 15 5 8 1015.8 1016.0 0.0
23/09:30am 12.7 9.5 7.0 68 2.8 ESE 13 24 7 13 1015.9 1016.1 0.0
23/09:00am 11.6 8.7 6.3 70 2.5 SE 11 24 6 13 1016.0 1016.2 0.0
23/08:30am 10.6 6.5 6.2 74 2.1 SSE 17 22 9 12 1015.9 1016.1 0.0
23/08:00am 9.2 4.9 5.2 76 1.8 SE 17 20 9 11 1015.9 1016.1 0.0
23/07:30am 8.0 3.6 4.9 81 1.4 SSE 17 22 9 12 1015.9 1016.1 0.0
23/07:00am 6.3 3.0 4.3 87 0.9 SSE 11 17 6 9 1015.9 1016.1 0.0
23/06:30am 4.7 1.9 3.4 91 0.5 SSE 7 9 4 5 1015.8 1016.0 0.0
23/06:00am 5.1 2.9 3.4 89 0.7 SSW 4 7 2 4 1015.5 1015.7 0.0
23/05:30am 4.9 2.7 3.6 91 0.5 S 4 11 2 6 1015.5 1015.7 0.0
23/05:00am 4.0 2.2 3.4 96 0.2 S 2 7 1 4 1015.4 1015.6 0.0
23/04:30am 3.1 1.5 2.4 95 0.3 CALM 0 0 0 0 1015.3 1015.5 0.0
23/04:00am 3.1 1.5 2.2 94 0.4 CALM 0 0 0 0 1015.6 1015.8 0.0
23/03:30am 3.5 1.9 2.6 94 0.4 CALM 0 0 0 0 1015.7 1015.9 0.0
23/03:00am 4.3 2.8 3.1 92 0.5 CALM 0 0 0 0 1015.8 1016.0 0.0
23/02:30am 4.5 3.0 3.0 90 0.6 CALM 0 0 0 0 1016.2 1016.4 0.0
23/02:00am 5.1 2.9 3.3 88 0.8 SW 4 9 2 5 1016.4 1016.6 0.0
23/01:30am 5.3 2.5 3.3 87 0.8 SSW 7 11 4 6 1016.5 1016.7 0.0
23/01:00am 5.5 2.9 3.3 86 0.9 SSW 6 9 3 5 1017.0 1017.1 0.0
23/12:30am 6.1 3.3 3.1 81 1.3 SSW 7 13 4 7 1017.2 1017.3 0.0
23/12:00am 7.2 3.8 3.8 79 1.5 SSW 11 15 6 8 1017.4 1017.5 0.0
 
Date/Time
EST
Temp
°C
App
Temp
°C
Dew
Point
°C
Rel
Hum
%
Delta-T
°C
Wind Press
QNH
hPa
Press
MSL
hPa
Rain since
9am
mm
Dir  Spd
km/h
Gust
km/h
Spd
kts
Gust
kts
22/11:30pm 7.5 3.7 3.9 78 1.6 S 13 19 7 10 1017.3 1017.4 0.0
22/11:00pm 7.6 4.2 4.2 79 1.5 S 11 17 6 9 1017.8 1017.9 0.0
22/10:30pm 8.0 4.3 4.2 77 1.7 S 13 17 7 9 1018.0 1018.1 0.0
22/10:00pm 8.3 4.6 4.5 77 1.7 S 13 19 7 10 1018.2 1018.3 0.0
22/09:30pm 8.4 4.8 4.8 78 1.6 S 13 20 7 11 1018.3 1018.4 0.0
22/09:00pm 8.8 5.3 5.4 79 1.5 SSE 13 17 7 9 1018.4 1018.6 0.0
22/08:30pm 9.3 4.7 5.7 78 1.7 SSE 19 32 10 17 1018.2 1018.3 0.0
22/08:00pm 9.9 5.4 6.3 78 1.7 SSE 19 28 10 15 1018.1 1018.2 0.0
22/07:30pm 10.3 5.7 6.6 78 1.8 S 20 30 11 16 1018.0 1018.1 0.0
22/07:00pm 10.4 5.4 6.5 77 1.8 SSE 22 33 12 18 1017.9 1018.0 0.0
22/06:30pm 11.2 7.2 6.5 73 2.2 S 17 22 9 12 1018.0 1018.1 0.0
22/06:00pm 11.4 7.0 6.5 72 2.3 SSE 19 24 10 13 1017.5 1017.6 0.0
22/05:30pm 11.9 7.9 6.6 70 2.5 SSE 17 26 9 14 1017.2 1017.3 0.0
22/05:00pm 12.3 8.5 7.4 72 2.4 S 17 20 9 11 1016.9 1017.0 0.0
22/04:30pm 12.5 8.1 6.5 67 2.9 SSE 19 24 10 13 1016.4 1016.6 0.0
22/04:00pm 13.0 9.0 6.8 66 3.0 SSE 17 22 9 12 1016.1 1016.3 0.0
22/03:30pm 12.8 8.7 6.4 65 3.1 SSE 17 22 9 12 1016.0 1016.2 0.0
22/03:00pm 13.3 9.3 6.6 64 3.2 S 17 22 9 12 1015.9 1016.1 0.0
22/02:30pm 13.3 9.2 6.4 63 3.3 S 17 22 9 12 1015.9 1016.1 0.0
22/02:00pm 13.3 9.7 6.9 65 3.1 S 15 26 8 14 1015.9 1016.1 0.0

Other Formats:

Comma delimited format used in spreadsheet applications
http://www.bom.gov.au/fwo/IDV60801/IDV60801.94855.axf

JavaScript Object Notation format (JSON) in row-major order
http://www.bom.gov.au/fwo/IDV60801/IDV60801.94855.json